Fecha, hora, temperatura, viento dirección y velocidad, humedad y presión.

  • 16-01-2019 16:00:00 | 9.90°C | Noroeste |17.00 km/h | 91.00% | 989.80 hPa
  • 16-01-2019 15:00:00 | 10.80°C | Noroeste |15.00 km/h | 80.00% | 989.70 hPa
  • 16-01-2019 14:00:00 | 11.40°C | Noroeste |10.00 km/h | 77.00% | 990.10 hPa
  • 16-01-2019 13:00:00 | 10.50°C | Noroeste |9.00 km/h | 84.00% | 990.50 hPa
  • 16-01-2019 12:00:00 | 9.70°C | Noroeste |10.00 km/h | 87.00% | 990.90 hPa
  • 16-01-2019 11:00:00 | 9.30°C | Noroeste |12.00 km/h | 93.00% | 990.60 hPa
  • 16-01-2019 10:00:00 | 9.00°C | Norte |14.00 km/h | 94.00% | 990.00 hPa
  • 16-01-2019 09:00:00 | 9.20°C | Noroeste |8.00 km/h | 93.00% | 989.90 hPa
  • 16-01-2019 08:00:00 | 10.00°C | Noroeste |16.00 km/h | 88.00% | 989.50 hPa
  • 16-01-2019 07:00:00 | 9.50°C | Norte |8.00 km/h | 90.00% | 989.20 hPa
  • 16-01-2019 06:00:00 | 9.60°C | Noroeste |6.00 km/h | 91.00% | 989.60 hPa
  • 16-01-2019 05:00:00 | 9.60°C | Oeste |12.00 km/h | 89.00% | 990.00 hPa
  • 16-01-2019 04:00:00 | 10.30°C | Oeste |17.00 km/h | 80.00% | 990.10 hPa
  • 16-01-2019 03:00:00 | 10.30°C | Oeste |21.00 km/h | 81.00% | 990.00 hPa
  • 16-01-2019 02:00:00 | 10.40°C | Oeste |19.00 km/h | 85.00% | 990.20 hPa
  • 16-01-2019 01:00:00 | 10.20°C | Sudoeste |26.00 km/h | 84.00% | 990.20 hPa
  • 16-01-2019 00:00:00 | 10.50°C | Sudoeste |26.00 km/h | 86.00% | 990.40 hPa
  • 15-01-2019 23:00:00 | 10.30°C | Sur |18.00 km/h | 85.00% | 990.60 hPa
  • 15-01-2019 22:00:00 | 10.20°C | Sudoeste |22.00 km/h | 84.00% | 990.90 hPa
  • 15-01-2019 21:00:00 | 10.20°C | Sur |22.00 km/h | 85.00% | 990.70 hPa
  • 15-01-2019 20:00:00 | 10.40°C | Sudoeste |22.00 km/h | 87.00% | 990.70 hPa
  • 15-01-2019 19:00:00 | 10.40°C | Sur |21.00 km/h | 89.00% | 990.60 hPa
  • 15-01-2019 18:00:00 | 10.70°C | Sur |17.00 km/h | 81.00% | 990.50 hPa
  • 15-01-2019 17:00:00 | 12.20°C | Sur |19.00 km/h | 73.00% | 990.60 hPa
    • diseño web asturias Información sobre el estado de las mareas, altura de la marejada, temperatura del agua y otros datos de Gijón en Asturias.

      Surf Gijón